GMFF

Saïss Airport

Fes, Morocco
TAF GMFF 182300Z 1900/2006 24006KT 9999 FEW013 BKN026 BECMG 1906/1909 22014KT 6000 RA SCT013 BKN020 PROB40 TEMPO 1923/2006 22012G25KT
Issued Valid From Valid To
Jan-18 @ 23:00 UTC
(3 hours ago)
Jan-19 @ 00:00 UTC
(2 hours ago)
Jan-20 @ 06:00 UTC
(-1 days ago)
Jan-19 @ 00:00 to Jan-19 @ 06:00
TAF GMFF 182300Z 1900/2006 24006KT 9999 FEW013 BKN026
Wind Visibility Clouds
240° at 6 knots 10,000+ meters
  • Few at 1,300' AGL
  • Broken at 2,600' AGL
Becoming Jan-19 @ 06:00 to Jan-20 @ 06:00
BECMG 1906/1909 22014KT 6000 RA SCT013 BKN020
Wind Visibility Clouds Conditions
220° at 14 knots 6,003 meters
  • Scattered at 1,300' AGL
  • Broken at 2,000' AGL
  • Rain
Temporary  (Probability 40%) Jan-19 @ 23:00 to Jan-20 @ 06:00
PROB40 TEMPO 1923/2006 22012G25KT
Wind
220° at 12 knots
 Gusting to 25 knots
TAF GMFF 182300Z 1900/2006 24006KT 9999 FEW013 BKN026 BECMG 1906/1909 22014KT 6000 RA SCT013 BKN020 PROB40 TEMPO 1923/2006 22012G25KT
Issued Jan-18 @ 23:00 UTC
(3 hours ago)
Valid From Jan-19 @ 00:00 UTC
(2 hours ago)
Valid To Jan-20 @ 06:00 UTC
(-1 days ago)
Jan-19 @ 00:00 - Jan-19 @ 06:00
Wind Visibility
240° at 6 knots 10,000+ meters
Clouds
  • Few at 1,300' AGL
  • Broken at 2,600' AGL
Becoming Jan-19 @ 06:00 - Jan-20 @ 06:00
Wind Visibility
220° at 14 knots 6,003 meters
Clouds
  • Scattered at 1,300' AGL
  • Broken at 2,000' AGL
Conditions
  • Rain
Probability 40% Temporary Jan-19 @ 23:00 - Jan-20 @ 06:00
Wind
220° at 12 knots
 Gusting to 25 knots